createdAt,value
2019-02-12T00:02:16.879Z,91.80
2019-02-12T00:04:38.304Z,91.70
2019-02-12T00:06:59.855Z,91.60
2019-02-12T00:09:21.191Z,91.90
2019-02-12T00:11:42.387Z,91.60
2019-02-12T00:14:03.621Z,91.70
2019-02-12T00:16:25.070Z,91.70
2019-02-12T00:18:46.281Z,91.70
2019-02-12T00:21:09.195Z,91.80
2019-02-12T00:23:30.590Z,91.60
2019-02-12T00:25:51.792Z,92.00
2019-02-12T00:28:13.366Z,91.90
2019-02-12T00:30:34.562Z,92.00
2019-02-12T00:32:55.751Z,92.00
2019-02-12T00:35:16.948Z,92.00
2019-02-12T00:37:38.149Z,92.00
2019-02-12T00:39:59.355Z,92.00
2019-02-12T00:42:20.553Z,92.10
2019-02-12T00:44:41.763Z,92.00
2019-02-12T00:47:04.065Z,91.90
2019-02-12T00:49:25.388Z,92.00
2019-02-12T00:51:46.615Z,92.00
2019-02-12T00:54:07.909Z,92.10
2019-02-12T00:56:29.102Z,92.10
2019-02-12T00:58:50.319Z,92.10
2019-02-12T01:01:12.534Z,92.00
2019-02-12T01:03:33.742Z,92.00
2019-02-12T01:05:54.962Z,92.10
2019-02-12T01:08:16.157Z,92.20
2019-02-12T01:10:37.362Z,92.10
2019-02-12T01:12:58.549Z,92.10
2019-02-12T01:15:19.838Z,92.10
2019-02-12T01:17:41.133Z,92.10
2019-02-12T01:20:04.745Z,92.20
2019-02-12T01:22:25.946Z,92.20
2019-02-12T01:24:47.145Z,92.20
2019-02-12T01:27:08.522Z,92.10
2019-02-12T01:29:29.738Z,92.10
2019-02-12T01:31:50.925Z,92.10
2019-02-12T01:34:12.131Z,92.10
2019-02-12T01:36:33.320Z,92.10
2019-02-12T01:38:54.515Z,92.10
2019-02-12T01:41:15.733Z,92.20
2019-02-12T01:43:36.925Z,92.10
2019-02-12T01:45:58.170Z,92.10
2019-02-12T01:48:20.662Z,92.30
2019-02-12T01:50:41.980Z,92.20
2019-02-12T01:53:03.175Z,92.20
2019-02-12T01:55:24.425Z,92.20
2019-02-12T01:57:45.783Z,92.30
2019-02-12T02:00:10.087Z,92.20
2019-02-12T02:02:31.282Z,92.20
2019-02-12T02:04:52.513Z,92.30
2019-02-12T02:07:13.713Z,92.30
2019-02-12T02:09:34.921Z,92.20
2019-02-12T02:11:56.226Z,92.30
2019-02-12T02:14:17.522Z,92.10
2019-02-12T02:16:38.721Z,92.00
2019-02-12T02:18:59.935Z,91.90
2019-02-12T02:21:21.191Z,91.80
2019-02-12T02:23:42.485Z,92.00
2019-02-12T02:26:03.693Z,92.00
2019-02-12T02:28:24.893Z,92.20
2019-02-12T02:30:46.425Z,92.20
2019-02-12T02:33:07.619Z,92.20
2019-02-12T02:35:28.822Z,92.20
2019-02-12T02:37:50.061Z,92.20
2019-02-12T02:40:11.373Z,92.30
2019-02-12T02:42:32.556Z,92.30
2019-02-12T02:44:54.882Z,92.40
2019-02-12T02:47:16.121Z,92.40
2019-02-12T02:49:37.378Z,92.50
2019-02-12T02:51:58.672Z,92.50
2019-02-12T02:54:19.895Z,92.60
2019-02-12T02:56:41.101Z,92.60
2019-02-12T02:59:02.291Z,92.60
2019-02-12T03:01:24.711Z,92.60
2019-02-12T03:03:45.898Z,92.70
2019-02-12T03:06:07.214Z,92.60
2019-02-12T03:08:28.410Z,92.50
2019-02-12T03:10:49.620Z,92.60
2019-02-12T03:13:10.814Z,92.60
2019-02-12T03:15:32.039Z,92.50
2019-02-12T03:17:53.225Z,92.60
2019-02-12T03:20:14.434Z,92.40
2019-02-12T03:22:35.698Z,92.50
2019-02-12T03:24:56.902Z,92.50
2019-02-12T03:27:18.100Z,92.40
2019-02-12T03:29:39.320Z,92.40
2019-02-12T03:32:00.531Z,92.50
2019-02-12T03:34:21.711Z,92.50
2019-02-12T03:36:42.914Z,92.60
2019-02-12T03:39:04.810Z,92.60
2019-02-12T03:41:26.329Z,92.70
2019-02-12T03:43:47.515Z,92.60
2019-02-12T03:46:08.729Z,92.60
2019-02-12T03:48:29.917Z,92.70
2019-02-12T03:50:51.133Z,92.70
2019-02-12T03:53:12.349Z,92.70
2019-02-12T03:55:33.640Z,92.60
2019-02-12T03:57:55.032Z,92.70
2019-02-12T04:00:16.320Z,92.50
2019-02-12T04:02:41.330Z,92.50
2019-02-12T04:05:04.641Z,92.60
2019-02-12T04:07:25.849Z,92.60
2019-02-12T04:09:48.334Z,92.70
2019-02-12T04:12:09.538Z,92.60
2019-02-12T04:14:30.730Z,92.70
2019-02-12T04:16:51.956Z,92.70
2019-02-12T04:19:13.165Z,92.70
2019-02-12T04:21:34.465Z,92.80
2019-02-12T04:23:56.846Z,92.80
2019-02-12T04:26:18.186Z,92.80
2019-02-12T04:28:39.387Z,92.70
2019-02-12T04:31:00.598Z,92.80
2019-02-12T04:33:21.792Z,92.80
2019-02-12T04:38:01.328Z,92.80
2019-02-12T04:40:22.526Z,92.90
2019-02-12T04:42:43.743Z,92.80
2019-02-12T04:45:08.170Z,92.80
2019-02-12T04:47:29.394Z,92.90
2019-02-12T04:49:50.569Z,92.90
2019-02-12T04:52:11.816Z,92.90
2019-02-12T04:54:33.078Z,92.90
2019-02-12T04:56:54.286Z,92.90
2019-02-12T04:59:15.617Z,92.90
2019-02-12T05:01:36.809Z,92.90
2019-02-12T05:03:58.038Z,92.90
2019-02-12T05:06:19.242Z,92.90
2019-02-12T05:09:04.160Z,92.90
2019-02-12T05:11:25.343Z,92.90
2019-02-12T05:13:46.878Z,92.90
2019-02-12T05:16:08.081Z,92.90
2019-02-12T05:18:29.284Z,93.30
2019-02-12T05:20:50.493Z,92.90
2019-02-12T05:23:11.795Z,93.00
2019-02-12T05:25:32.994Z,92.90
2019-02-12T05:27:54.297Z,92.90
2019-02-12T05:30:15.730Z,92.80
2019-02-12T05:32:36.926Z,92.80
2019-02-12T05:34:58.113Z,92.90
2019-02-12T05:37:19.310Z,92.90
2019-02-12T05:39:40.587Z,92.90
2019-02-12T05:42:01.778Z,93.00
2019-02-12T05:44:22.977Z,92.80
2019-02-12T05:46:45.198Z,92.80
2019-02-12T05:49:06.405Z,92.90
2019-02-12T05:51:27.606Z,92.80
2019-02-12T05:53:48.821Z,92.70
2019-02-12T05:56:10.007Z,92.70
2019-02-12T05:58:31.242Z,92.70
2019-02-12T06:00:52.433Z,92.70
2019-02-12T06:03:13.646Z,92.60
2019-02-12T06:05:34.845Z,92.60
2019-02-12T06:07:56.349Z,92.60
2019-02-12T06:10:17.566Z,92.60
2019-02-12T06:12:38.774Z,92.60
2019-02-12T06:14:59.968Z,92.60
2019-02-12T06:17:21.383Z,92.50
2019-02-12T06:19:42.581Z,92.60
2019-02-12T06:22:03.765Z,92.60
2019-02-12T06:24:24.971Z,92.60
2019-02-12T06:26:46.170Z,93.00
2019-02-12T06:29:07.681Z,92.60
2019-02-12T06:31:28.889Z,92.80
2019-02-12T06:33:50.200Z,92.50
2019-02-12T06:36:11.396Z,92.50
2019-02-12T06:38:32.615Z,92.60
2019-02-12T06:40:53.818Z,92.50
2019-02-12T06:43:15.027Z,92.50
2019-02-12T06:45:37.441Z,92.50
2019-02-12T06:47:58.678Z,92.40
2019-02-12T06:50:19.870Z,92.50
2019-02-12T06:52:41.116Z,92.40
2019-02-12T06:55:02.436Z,92.30
2019-02-12T06:57:23.728Z,92.20
2019-02-12T06:59:45.049Z,92.20
2019-02-12T07:02:43.703Z,92.20
2019-02-12T07:05:07.353Z,92.30
2019-02-12T07:07:35.462Z,92.10
2019-02-12T07:09:56.662Z,92.00
2019-02-12T07:12:24.849Z,91.90
2019-02-12T07:14:53.058Z,92.10
2019-02-12T07:17:34.625Z,91.70
2019-02-12T07:20:17.405Z,91.50
2019-02-12T07:22:54.919Z,91.40
2019-02-12T07:25:35.186Z,91.40
2019-02-12T07:28:03.061Z,91.30
2019-02-12T07:30:37.685Z,91.10
2019-02-12T07:33:13.337Z,91.10
2019-02-12T07:36:02.767Z,91.10
2019-02-12T07:38:33.951Z,90.90
2019-02-12T07:41:07.781Z,91.00
2019-02-12T07:43:38.702Z,90.80
2019-02-12T07:46:23.769Z,90.80
2019-02-12T07:48:51.790Z,90.70
2019-02-12T07:51:16.788Z,90.60
2019-02-12T07:53:59.510Z,90.50
2019-02-12T07:56:42.549Z,90.40
2019-02-12T07:59:22.876Z,90.30
2019-02-12T08:02:09.292Z,90.30
2019-02-12T08:04:46.522Z,90.10
2019-02-12T08:07:17.828Z,90.10
2019-02-12T08:09:51.970Z,89.90
2019-02-12T08:12:16.973Z,89.90
2019-02-12T08:14:42.282Z,89.60
2019-02-12T08:17:10.487Z,89.50
2019-02-12T08:19:35.492Z,89.30
2019-02-12T08:22:17.506Z,88.90
2019-02-12T08:24:51.476Z,89.00
2019-02-12T08:27:16.477Z,88.80
2019-02-12T08:29:53.749Z,88.60
2019-02-12T08:32:35.817Z,88.70
2019-02-12T08:35:17.317Z,88.40
2019-02-12T08:37:48.278Z,88.40
2019-02-12T08:40:17.580Z,88.20
2019-02-12T08:42:54.662Z,87.80
2019-02-12T08:45:32.079Z,87.30
2019-02-12T08:48:06.194Z,87.00
2019-02-12T08:50:52.010Z,86.20
2019-02-12T08:53:28.617Z,86.00
2019-02-12T08:56:02.850Z,84.90
2019-02-12T08:58:33.570Z,84.60
2019-02-12T09:01:07.505Z,84.20
2019-02-12T09:03:47.498Z,83.20
2019-02-12T09:06:30.039Z,82.10
2019-02-12T09:09:01.290Z,81.90
2019-02-12T09:11:29.058Z,81.70
2019-02-12T09:13:56.635Z,81.30
2019-02-12T09:16:33.773Z,81.10
2019-02-12T09:19:16.635Z,80.50
2019-02-12T09:22:10.559Z,79.70
2019-02-12T09:24:56.723Z,79.80
2019-02-12T09:27:21.741Z,79.50
2019-02-12T09:29:55.566Z,79.30
2019-02-12T09:32:39.713Z,78.60
2019-02-12T09:35:19.292Z,78.50
2019-02-12T09:38:13.366Z,78.20
2019-02-12T09:40:47.316Z,77.90
2019-02-12T09:43:45.828Z,78.40
2019-02-12T09:46:22.867Z,78.00
2019-02-12T09:49:07.642Z,76.50
2019-02-12T09:51:35.393Z,76.80
2019-02-12T09:54:18.712Z,77.20
2019-02-12T09:56:55.966Z,76.90
2019-02-12T09:59:29.490Z,76.50
2019-02-12T10:02:12.543Z,76.40
2019-02-12T10:04:54.204Z,76.10
2019-02-12T10:07:22.026Z,76.00
2019-02-12T10:09:59.110Z,76.20
2019-02-12T10:12:26.832Z,75.60
2019-02-12T10:14:55.998Z,75.40
2019-02-12T10:17:21.273Z,71.90
2019-02-12T10:19:52.289Z,72.90
2019-02-12T10:22:32.422Z,71.80
2019-02-12T10:24:57.435Z,72.40
2019-02-12T10:27:28.257Z,72.10
2019-02-12T10:29:59.046Z,68.60
2019-02-12T10:32:20.036Z,67.80
2019-02-12T10:34:41.231Z,68.50
2019-02-12T10:37:02.446Z,67.30
2019-02-12T10:39:23.665Z,66.00
2019-02-12T10:41:44.868Z,66.50
2019-02-12T10:44:06.051Z,65.30
2019-02-12T10:46:27.367Z,67.50
2019-02-12T10:48:48.559Z,66.10
2019-02-12T10:51:09.775Z,64.30
2019-02-12T10:53:30.967Z,64.50
2019-02-12T10:55:52.157Z,65.20
2019-02-12T10:58:13.478Z,65.40
2019-02-12T11:00:34.755Z,64.70
2019-02-12T11:02:55.949Z,65.10
2019-02-12T11:05:17.141Z,63.30
2019-02-12T11:07:38.537Z,63.30
2019-02-12T11:09:59.834Z,64.10
2019-02-12T11:12:21.333Z,63.40
2019-02-12T11:14:42.538Z,61.70
2019-02-12T11:17:03.740Z,62.60
2019-02-12T11:19:24.937Z,62.00
2019-02-12T11:21:46.142Z,61.70
2019-02-12T11:24:07.337Z,62.10
2019-02-12T11:26:28.701Z,61.30
2019-02-12T11:28:49.961Z,62.00
2019-02-12T11:31:11.147Z,63.70
2019-02-12T11:36:50.821Z,64.70
2019-02-12T11:39:12.025Z,64.20
2019-02-12T11:41:33.251Z,64.80
2019-02-12T11:43:54.451Z,63.30
2019-02-12T11:46:15.666Z,63.70
2019-02-12T11:48:36.890Z,64.10
2019-02-12T11:50:58.093Z,62.80
2019-02-12T11:53:19.293Z,64.70
2019-02-12T11:55:41.153Z,63.00
2019-02-12T11:58:02.754Z,62.70
2019-02-12T12:00:25.970Z,63.00
2019-02-12T12:02:47.480Z,64.00
2019-02-12T12:05:08.675Z,63.10
2019-02-12T12:07:29.874Z,62.50
2019-02-12T12:09:51.335Z,61.70
2019-02-12T12:12:12.967Z,61.10
2019-02-12T12:14:34.162Z,59.70
2019-02-12T12:16:55.355Z,59.30
2019-02-12T12:19:16.600Z,58.20
2019-02-12T12:21:37.802Z,58.90
2019-02-12T12:23:59.300Z,59.10
2019-02-12T12:26:20.542Z,57.90
2019-02-12T12:28:43.328Z,57.80
2019-02-12T12:31:04.790Z,54.00
2019-02-12T12:33:26.048Z,51.40
2019-02-12T12:35:47.330Z,53.70
2019-02-12T12:38:08.521Z,55.10
2019-02-12T12:40:29.783Z,53.50
2019-02-12T12:42:50.969Z,53.40
2019-02-12T12:45:13.281Z,54.70
2019-02-12T12:47:34.495Z,53.80
2019-02-12T12:49:55.736Z,53.80
2019-02-12T12:52:16.929Z,53.50
2019-02-12T12:54:38.126Z,53.10
2019-02-12T12:56:59.374Z,52.40
2019-02-12T12:59:20.794Z,52.00
2019-02-12T13:01:42.101Z,49.80
2019-02-12T13:04:03.298Z,50.60
2019-02-12T13:06:24.516Z,50.20
2019-02-12T13:08:45.730Z,51.50
2019-02-12T13:11:06.937Z,51.00
2019-02-12T13:13:28.119Z,51.60
2019-02-12T13:15:49.330Z,51.50
2019-02-12T13:18:10.544Z,50.40
2019-02-12T13:20:31.744Z,50.80
2019-02-12T13:22:53.307Z,51.70
2019-02-12T13:25:14.546Z,52.10
2019-02-12T13:27:35.845Z,52.20
2019-02-12T13:29:57.195Z,51.20
2019-02-12T13:32:18.423Z,52.30
2019-02-12T13:34:39.644Z,51.50
2019-02-12T13:37:00.864Z,52.30
2019-02-12T13:39:22.082Z,51.30
2019-02-12T13:41:43.286Z,51.80
2019-02-12T13:44:04.501Z,52.50
2019-02-12T13:46:25.702Z,52.80
2019-02-12T13:49:00.537Z,52.30
2019-02-12T13:51:21.744Z,52.00
2019-02-12T13:53:42.955Z,52.20
2019-02-12T13:56:04.292Z,53.20
2019-02-12T13:58:25.888Z,51.50
2019-02-12T14:00:47.202Z,51.40
2019-02-12T14:03:08.429Z,51.10
2019-02-12T14:05:29.644Z,52.00
2019-02-12T14:07:50.888Z,51.00
2019-02-12T14:10:12.151Z,51.20
2019-02-12T14:12:33.350Z,51.10
2019-02-12T14:14:54.646Z,51.40
2019-02-12T14:17:15.854Z,51.00
2019-02-12T14:19:37.089Z,51.70
2019-02-12T14:21:58.306Z,52.00
2019-02-12T14:24:19.503Z,50.70
2019-02-12T14:26:40.747Z,51.70
2019-02-12T14:29:02.035Z,51.30
2019-02-12T14:31:23.342Z,52.50
2019-02-12T14:33:44.570Z,52.60
2019-02-12T14:36:05.785Z,52.20
2019-02-12T14:38:26.994Z,51.20
2019-02-12T14:40:48.223Z,52.30
2019-02-12T14:43:14.118Z,52.10
2019-02-12T14:45:32.858Z,52.20
2019-02-12T14:47:54.453Z,52.90
2019-02-12T14:50:37.429Z,52.60
2019-02-12T14:52:58.686Z,52.80
2019-02-12T14:55:19.894Z,53.10
2019-02-12T14:57:41.086Z,52.30
2019-02-12T15:00:05.503Z,52.20
2019-02-12T15:02:28.640Z,52.30
2019-02-12T15:04:49.860Z,52.50
2019-02-12T15:07:11.054Z,51.80
2019-02-12T15:09:33.860Z,52.50
2019-02-12T15:11:55.054Z,52.60
2019-02-12T15:14:16.693Z,53.10
2019-02-12T15:16:37.883Z,53.20
2019-02-12T15:18:59.077Z,54.00
2019-02-12T15:21:20.286Z,54.10
2019-02-12T15:23:41.489Z,54.40
2019-02-12T15:26:02.706Z,54.30
2019-02-12T15:28:23.887Z,54.10
2019-02-12T15:30:45.209Z,54.20
2019-02-12T15:33:06.431Z,54.20
2019-02-12T15:35:28.193Z,54.50
2019-02-12T15:37:49.576Z,54.90
2019-02-12T15:40:16.543Z,54.60
2019-02-12T15:42:37.756Z,54.40
2019-02-12T15:44:58.947Z,54.20
2019-02-12T15:47:20.158Z,54.10
2019-02-12T15:49:41.357Z,54.50
2019-02-12T15:52:02.923Z,54.50
2019-02-12T15:54:24.121Z,54.80
2019-02-12T15:56:45.317Z,55.00
2019-02-12T15:59:06.667Z,55.30
2019-02-12T16:01:28.288Z,55.90
2019-02-12T16:03:49.678Z,56.30
2019-02-12T16:06:10.898Z,56.40
2019-02-12T16:08:32.483Z,56.30
2019-02-12T16:10:55.168Z,56.50
2019-02-12T16:13:17.142Z,56.70
2019-02-12T16:15:38.349Z,57.20
2019-02-12T16:18:00.211Z,57.70
2019-02-12T16:20:22.654Z,57.90
2019-02-12T16:22:43.848Z,58.20
2019-02-12T16:25:08.298Z,58.90
2019-02-12T16:27:29.570Z,59.00
2019-02-12T16:29:51.084Z,59.30
2019-02-12T16:32:12.426Z,59.50
2019-02-12T16:34:34.545Z,59.90
2019-02-12T16:36:55.748Z,60.00
2019-02-12T16:39:17.071Z,60.20
2019-02-12T16:41:38.579Z,60.50
2019-02-12T16:44:01.706Z,61.10
2019-02-12T16:46:23.400Z,61.00
2019-02-12T16:48:45.878Z,61.40
2019-02-12T16:51:07.082Z,61.60
2019-02-12T16:53:28.526Z,61.70
2019-02-12T16:55:49.801Z,61.80
2019-02-12T16:58:11.286Z,61.80
2019-02-12T17:00:32.938Z,62.10
2019-02-12T17:02:54.774Z,62.40
2019-02-12T17:05:16.093Z,62.60
2019-02-12T17:07:37.478Z,62.90
2019-02-12T17:09:58.801Z,62.90
2019-02-12T17:12:20.099Z,63.20
2019-02-12T17:14:41.776Z,63.60
2019-02-12T17:17:03.124Z,63.60
2019-02-12T17:19:24.459Z,64.10
2019-02-12T17:21:46.002Z,64.00
2019-02-12T17:24:08.877Z,64.30
2019-02-12T17:26:30.283Z,64.40
2019-02-12T17:28:52.135Z,64.30
2019-02-12T17:31:13.506Z,64.50
2019-02-12T17:33:34.726Z,64.60
2019-02-12T17:35:56.251Z,64.60
2019-02-12T17:38:17.779Z,64.60
2019-02-12T17:40:39.055Z,64.70
2019-02-12T17:43:00.255Z,64.70
2019-02-12T17:45:21.502Z,64.90
2019-02-12T17:47:42.998Z,65.10
2019-02-12T17:50:07.283Z,65.20
2019-02-12T17:52:28.478Z,65.30
2019-02-12T17:54:49.675Z,65.10
2019-02-12T17:57:10.917Z,65.40
2019-02-12T17:59:32.136Z,65.50
2019-02-12T18:01:53.374Z,65.80
2019-02-12T18:04:14.573Z,65.90
2019-02-12T18:06:36.039Z,66.20
2019-02-12T18:08:57.249Z,66.10
2019-02-12T18:11:18.536Z,66.40
2019-02-12T18:13:39.742Z,66.70
2019-02-12T18:16:01.238Z,67.00
2019-02-12T18:18:22.459Z,66.50
2019-02-12T18:20:43.647Z,66.80
2019-02-12T18:23:04.853Z,66.70
2019-02-12T18:25:26.045Z,66.90
2019-02-12T18:27:47.243Z,66.60
2019-02-12T18:30:27.609Z,66.60
2019-02-12T18:32:48.901Z,67.00
2019-02-12T18:35:10.539Z,66.90
2019-02-12T18:37:32.103Z,66.70
2019-02-12T18:39:53.396Z,67.10
2019-02-12T18:42:14.797Z,67.00
2019-02-12T18:44:36.146Z,67.30
2019-02-12T18:46:57.351Z,67.60
2019-02-12T18:49:18.552Z,68.10
2019-02-12T18:51:39.769Z,68.20
2019-02-12T18:54:00.970Z,68.80
2019-02-12T18:56:22.315Z,69.20
2019-02-12T18:58:44.806Z,69.60
2019-02-12T19:01:06.019Z,70.20
2019-02-12T19:03:27.291Z,70.70
2019-02-12T19:05:48.545Z,70.90
2019-02-12T19:08:09.755Z,71.40
2019-02-12T19:10:30.952Z,71.30
2019-02-12T19:12:52.154Z,71.50
2019-02-12T19:15:15.665Z,71.80
2019-02-12T19:17:36.883Z,72.20
2019-02-12T19:19:58.078Z,72.20
2019-02-12T19:22:19.306Z,72.30
2019-02-12T19:24:40.826Z,72.60
2019-02-12T19:27:02.207Z,72.90
2019-02-12T19:29:23.419Z,73.60
2019-02-12T19:31:44.615Z,73.70
2019-02-12T19:34:05.944Z,73.70
2019-02-12T19:36:27.138Z,73.60
2019-02-12T19:38:48.406Z,73.80
2019-02-12T19:41:09.617Z,74.00
2019-02-12T19:43:30.828Z,74.00
2019-02-12T19:45:52.335Z,74.00
2019-02-12T19:48:13.521Z,74.40
2019-02-12T19:50:34.717Z,74.60
2019-02-12T19:52:55.946Z,75.30
2019-02-12T19:55:17.153Z,75.80
2019-02-12T19:57:38.351Z,75.70
2019-02-12T19:59:59.570Z,75.80
2019-02-12T20:02:20.782Z,75.80
2019-02-12T20:04:42.191Z,76.00
2019-02-12T20:07:03.510Z,76.80
2019-02-12T20:09:24.739Z,77.00
2019-02-12T20:11:45.964Z,77.00
2019-02-12T20:14:07.238Z,77.50
2019-02-12T20:16:28.809Z,77.20
2019-02-12T20:18:50.277Z,77.10
2019-02-12T20:21:11.664Z,77.60
2019-02-12T20:23:32.971Z,77.10
2019-02-12T20:25:55.298Z,77.50
2019-02-12T20:28:16.604Z,77.50
2019-02-12T20:30:37.897Z,77.90
2019-02-12T20:32:59.205Z,77.90
2019-02-12T20:35:21.673Z,78.10
2019-02-12T20:37:42.911Z,78.60
2019-02-12T20:40:07.218Z,78.70
2019-02-12T20:42:32.638Z,78.90
2019-02-12T20:44:54.384Z,78.70
2019-02-12T20:47:15.600Z,79.00
2019-02-12T20:49:36.980Z,79.00
2019-02-12T20:51:58.284Z,78.90
2019-02-12T20:54:19.503Z,79.30
2019-02-12T20:56:40.898Z,79.60
2019-02-12T20:59:02.227Z,79.80
2019-02-12T21:01:23.994Z,79.90
2019-02-12T21:03:45.350Z,79.80
2019-02-12T21:06:06.743Z,79.80
2019-02-12T21:08:28.611Z,80.40
2019-02-12T21:10:50.005Z,79.50
2019-02-12T21:13:11.237Z,79.50
2019-02-12T21:15:32.463Z,79.60
2019-02-12T21:17:53.761Z,80.10
2019-02-12T21:20:15.023Z,80.20
2019-02-12T21:22:36.316Z,80.80
2019-02-12T21:24:57.719Z,80.60
2019-02-12T21:27:23.480Z,80.30
2019-02-12T21:29:42.047Z,81.00
2019-02-12T21:32:03.634Z,80.20
2019-02-12T21:34:24.981Z,80.40
2019-02-12T21:36:46.729Z,80.60
2019-02-12T21:39:09.583Z,80.90
2019-02-12T21:41:30.813Z,81.50
2019-02-12T21:43:52.282Z,81.20
2019-02-12T21:46:14.673Z,80.90
2019-02-12T21:48:36.081Z,80.90
2019-02-12T21:50:57.657Z,81.30
2019-02-12T21:53:18.866Z,81.50
2019-02-12T21:55:42.033Z,81.40
2019-02-12T21:58:03.340Z,81.50
2019-02-12T22:00:24.672Z,81.70
2019-02-12T22:02:45.964Z,81.80
2019-02-12T22:05:10.191Z,82.00
2019-02-12T22:07:31.485Z,82.10
2019-02-12T22:09:52.698Z,82.10
2019-02-12T22:12:14.010Z,82.10
2019-02-12T22:14:35.207Z,82.10
2019-02-12T22:16:56.428Z,82.20
2019-02-12T22:19:19.188Z,82.10
2019-02-12T22:21:40.494Z,81.80
2019-02-12T22:24:01.700Z,81.20
2019-02-12T22:26:22.910Z,81.30
2019-02-12T22:28:44.214Z,82.00
2019-02-12T22:31:05.415Z,82.20
2019-02-12T22:33:26.625Z,82.70
2019-02-12T22:35:47.963Z,82.80
2019-02-12T22:38:09.432Z,82.80
2019-02-12T22:40:30.647Z,82.80
2019-02-12T22:42:51.863Z,82.70
2019-02-12T22:45:19.064Z,82.70
2019-02-12T22:47:40.273Z,83.20
2019-02-12T22:50:04.117Z,82.70
2019-02-12T22:52:25.514Z,82.60
2019-02-12T22:54:46.762Z,82.70
2019-02-12T22:57:07.965Z,82.80
2019-02-12T22:59:29.282Z,82.80
2019-02-12T23:01:50.796Z,82.90
2019-02-12T23:04:12.046Z,83.10
2019-02-12T23:06:33.451Z,83.50
2019-02-12T23:08:54.805Z,83.50
2019-02-12T23:11:16.027Z,83.90
2019-02-12T23:13:37.367Z,83.90
2019-02-12T23:15:58.800Z,84.30
2019-02-12T23:18:20.104Z,85.60
2019-02-12T23:20:41.313Z,85.00
2019-02-12T23:23:02.564Z,85.60
2019-02-12T23:25:23.841Z,85.40
2019-02-12T23:27:46.147Z,85.30
2019-02-12T23:30:08.834Z,85.70
2019-02-12T23:32:30.093Z,85.50
2019-02-12T23:34:57.018Z,85.90
2019-02-12T23:37:14.713Z,85.80
2019-02-12T23:39:36.080Z,85.90
2019-02-12T23:41:57.277Z,85.80
2019-02-12T23:44:18.851Z,85.70
2019-02-12T23:46:40.244Z,85.70
2019-02-12T23:49:01.462Z,85.70
2019-02-12T23:51:22.920Z,86.00
2019-02-12T23:53:45.499Z,86.20
2019-02-12T23:56:06.694Z,86.00
2019-02-12T23:58:27.950Z,86.00
